Latest Weather Observations for Dubbo

IDN60801

Issued at 6:32 pm EST Tuesday 25 April 2017 (issued every 30 minutes, with the page automatically refreshed every 10 minutes)

About weather observations | Map of weather stations | Latest weather observations for NSW | Other Formats
Station Details ID: 065070 Name: DUBBO AIRPORT AWS Lat: -32.22 Lon: 148.58 Height: 284.0 m
Data from the previous 72 hours. | See also: Recent months at Dubbo
Date/Time
EST
Temp
°C
App
Temp
°C
Dew
Point
°C
Rel
Hum
%
Delta-T
°C
Wind Press
QNH
hPa
Press
MSL
hPa
Rain since
9am
mm
Dir  Spd
km/h
Gust
km/h
Spd
kts
Gust
kts
25/06:30pm 17.7 17.7 15.3 86 1.4 N 9 15 5 8 1011.6 1010.9 0.4
25/06:00pm 17.8 17.4 15.2 85 1.5 N 11 15 6 8 1011.6 1010.9 0.4
25/05:30pm 18.1 17.3 15.0 82 1.8 NNE 13 17 7 9 1011.4 1010.7 0.4
25/05:00pm 18.3 17.5 15.2 82 1.8 NNE 13 15 7 8 1011.3 1010.6 0.4
25/04:30pm 18.4 16.8 15.1 81 2.0 NNE 17 22 9 12 1011.4 1010.7 0.4
25/04:00pm 19.0 17.2 15.5 80 2.1 N 19 22 10 12 1011.7 1011.0 0.4
25/03:30pm 18.5 18.6 15.4 82 1.8 NNE 9 13 5 7 1011.5 1010.8 0.4
25/03:00pm 18.5 17.7 15.2 81 2.0 NNW 13 17 7 9 1012.4 1011.7 0.4
25/02:30pm 18.4 18.0 15.3 82 1.8 NW 11 13 6 7 1012.5 1011.8 0.4
25/02:00pm 18.6 18.2 15.3 81 2.0 W 11 15 6 8 1012.9 1012.2 0.4
25/01:30pm 18.5 17.7 15.2 81 2.0 W 13 17 7 9 1013.3 1012.6 0.4
25/01:00pm 18.9 18.7 15.6 81 2.0 WNW 11 13 6 7 1013.5 1012.8 0.4
25/12:30pm 18.6 16.5 14.7 78 2.3 W 19 24 10 13 1014.1 1013.4 0.2
25/12:00pm 20.6 17.2 13.6 64 4.1 WNW 24 32 13 17 1014.5 1013.8 0.0
25/11:30am 20.6 18.4 14.5 68 3.6 WNW 19 26 10 14 1014.7 1014.0 0.0
25/11:00am 19.8 15.3 13.7 68 3.5 NNW 30 50 16 27 1015.0 1014.3 0.0
25/10:50am 20.9 16.5 12.8 60 4.7 NNW 28 48 15 26 1014.9 1014.2 0.0
25/10:30am 22.8 17.5 11.2 48 6.5 N 30 41 16 22 1014.4 1013.7 0.0
25/10:00am 23.1 18.3 11.8 49 6.4 NNE 28 41 15 22 1014.3 1013.6 0.0
25/09:30am 22.8 17.1 11.2 48 6.5 NNE 32 46 17 25 1014.4 1013.7 0.0
25/09:00am 23.4 17.8 11.5 47 6.8 NNE 32 50 17 27 1014.7 1014.0 0.0
25/08:58am 23.7 18.2 12.0 48 6.7 NNE 32 50 17 27 1014.7 1014.0 0.0
25/08:30am 21.9 16.8 11.9 53 5.7 NNE 30 41 16 22 1015.1 1014.4 0.0
25/08:24am 21.5 16.7 11.5 53 5.6 NNE 28 35 15 19 1015.1 1014.4 0.0
25/08:00am 18.5 16.8 12.3 67 3.5 NE 13 17 7 9 1015.2 1014.6 0.0
25/07:30am 17.0 16.0 12.3 74 2.6 NE 9 11 5 6 1015.1 1014.4 0.0
25/07:00am 16.0 14.5 11.8 76 2.3 NE 11 15 6 8 1014.8 1014.1 0.0
25/06:30am 15.9 14.0 11.9 77 2.2 NE 13 15 7 8 1014.9 1014.2 0.0
25/06:00am 15.3 13.8 11.9 80 1.9 NE 11 11 6 6 1015.1 1014.4 0.0
25/05:30am 15.4 14.0 12.2 81 1.8 ENE 11 13 6 7 1014.9 1014.2 0.0
25/05:00am 15.0 14.3 12.1 83 1.6 ENE 7 9 4 5 1014.8 1014.1 0.0
25/04:30am 14.9 13.4 11.9 82 1.6 ENE 11 13 6 7 1014.6 1013.9 0.0
25/04:00am 15.4 13.2 12.0 80 1.9 ENE 15 17 8 9 1014.8 1014.1 0.0
25/03:30am 14.8 12.5 11.9 83 1.6 ENE 15 17 8 9 1015.0 1014.3 0.0
25/03:00am 15.0 13.1 11.8 81 1.8 ENE 13 17 7 9 1015.3 1014.7 0.0
25/02:30am 15.6 13.8 12.0 79 2.0 ENE 13 17 7 9 1015.5 1014.9 0.0
25/02:00am 16.3 14.2 12.3 77 2.2 ENE 15 19 8 10 1016.0 1015.3 0.0
25/01:30am 16.6 14.6 12.6 77 2.2 ENE 15 19 8 10 1016.4 1015.7 0.0
25/01:00am 17.0 14.7 12.9 77 2.3 ENE 17 22 9 12 1016.6 1015.9 0.0
25/12:30am 16.4 14.9 13.1 81 1.9 ENE 13 17 7 9 1017.1 1016.4 0.0
25/12:00am 16.8 14.9 13.1 79 2.1 ENE 15 20 8 11 1017.4 1016.7 0.0
 
Date/Time
EST
Temp
°C
App
Temp
°C
Dew
Point
°C
Rel
Hum
%
Delta-T
°C
Wind Press
QNH
hPa
Press
MSL
hPa
Rain since
9am
mm
Dir  Spd
km/h
Gust
km/h
Spd
kts
Gust
kts
24/11:30pm 17.2 15.8 13.3 78 2.2 ENE 13 17 7 9 1017.8 1017.1 0.0
24/11:00pm 17.0 15.2 13.3 79 2.1 E 15 19 8 10 1018.0 1017.3 0.0
24/10:30pm 17.2 15.3 13.1 77 2.3 ENE 15 17 8 9 1018.3 1017.7 0.0
24/10:00pm 16.8 15.4 13.3 80 2.0 E 13 15 7 8 1018.4 1017.8 0.0
24/09:30pm 16.7 15.8 13.8 83 1.7 ESE 11 13 6 7 1018.7 1018.1 0.0
24/09:00pm 17.1 16.4 14.4 84 1.6 ESE 11 13 6 7 1018.9 1018.3 0.0
24/08:30pm 17.2 16.0 14.1 82 1.8 ESE 13 15 7 8 1018.9 1018.3 0.0
24/08:00pm 17.7 16.1 14.0 79 2.1 SE 15 15 8 8 1019.1 1018.5 0.0
24/07:30pm 17.9 17.0 13.6 76 2.5 SE 11 13 6 7 1019.1 1018.5 0.0
24/07:00pm 17.6 16.2 13.5 77 2.3 SE 13 15 7 8 1018.8 1018.2 0.0
24/06:30pm 18.0 16.6 13.5 75 2.6 ESE 13 13 7 7 1018.6 1018.0 0.0
24/06:00pm 18.1 16.8 13.6 75 2.6 SSE 13 13 7 7 1018.6 1018.0 0.0
24/05:30pm 18.7 17.8 13.6 72 2.9 SE 11 11 6 6 1018.6 1018.0 0.0
24/05:00pm 19.1 18.9 13.7 71 3.1 SE 7 9 4 5 1018.6 1018.0 0.0
24/04:30pm 19.8 19.8 14.2 70 3.3 SE 7 9 4 5 1018.6 1018.0 0.0
24/04:00pm 20.3 21.5 13.7 66 3.8 CALM 0 0 0 0 1018.6 1018.0 0.0
24/03:30pm 20.4 21.5 13.6 65 4.0 CALM 0 0 0 0 1018.8 1018.2 0.0
24/03:00pm 19.3 20.3 14.3 73 2.9 NNW 2 7 1 4 1019.1 1018.5 0.0
24/02:30pm 20.0 19.2 14.1 69 3.5 NNW 11 15 6 8 1019.3 1018.7 0.0
24/02:00pm 20.7 18.8 12.9 61 4.5 NNW 15 17 8 9 1019.4 1018.8 0.0
24/01:30pm 21.0 19.2 12.2 57 5.0 NNW 13 17 7 9 1019.8 1019.1 0.0
24/01:00pm 21.2 19.3 11.8 55 5.3 NNW 13 19 7 10 1020.2 1019.5 0.0
24/12:30pm 21.6 18.5 11.6 53 5.6 NNW 19 24 10 13 1020.6 1019.9 0.0
24/12:00pm 22.5 20.7 10.9 48 6.5 N 11 15 6 8 1021.1 1020.4 0.0
24/11:30am 21.7 21.8 12.8 57 5.1 NNE 4 11 2 6 1021.5 1020.9 0.0
24/11:00am 20.7 19.5 12.7 60 4.6 NE 11 15 6 8 1022.0 1021.4 0.0
24/10:30am 19.9 18.0 12.9 64 4.0 ENE 15 20 8 11 1022.3 1021.7 0.0
24/10:00am 19.0 17.0 12.7 67 3.6 ENE 15 20 8 11 1022.5 1021.9 0.0
24/09:30am 18.4 17.2 12.8 70 3.2 E 11 17 6 9 1022.6 1022.0 0.0
24/09:00am 16.5 15.0 11.9 74 2.5 ESE 11 15 6 8 1022.5 1021.9 0.0
24/08:30am 15.7 14.5 11.5 76 2.3 SE 9 13 5 7 1022.5 1021.9 0.0
24/08:00am 14.7 13.4 11.3 80 1.8 SE 9 11 5 6 1022.4 1021.8 0.0
24/07:30am 14.1 12.7 10.9 81 1.7 SE 9 13 5 7 1022.2 1021.6 0.0
24/07:00am 13.1 10.8 10.6 85 1.3 SE 13 17 7 9 1021.9 1021.3 0.0
24/06:30am 12.1 9.6 9.8 86 1.2 ESE 13 17 7 9 1021.7 1021.1 0.0
24/06:00am 12.7 10.6 9.9 83 1.5 SE 11 15 6 8 1021.5 1020.9 0.0
24/05:30am 13.0 10.6 10.2 83 1.5 SE 13 15 7 8 1021.3 1020.7 0.0
24/05:00am 11.9 9.3 9.5 85 1.2 SE 13 15 7 8 1021.2 1020.5 0.0
24/04:30am 13.0 11.0 10.0 82 1.6 SE 11 13 6 7 1021.2 1020.5 0.0
24/04:00am 13.2 10.1 10.2 82 1.6 SE 17 20 9 11 1021.0 1020.3 0.0
24/03:30am 12.3 11.0 9.9 85 1.2 ESE 7 9 4 5 1021.2 1020.5 0.0
24/03:00am 12.6 10.9 10.0 84 1.3 ESE 9 11 5 6 1021.3 1020.7 0.0
24/02:30am 13.0 10.9 9.8 81 1.7 SE 11 15 6 8 1021.3 1020.7 0.0
24/02:00am 13.7 10.9 9.9 78 2.0 SE 15 19 8 10 1021.6 1021.0 0.0
24/01:30am 13.8 11.4 10.2 79 1.9 SE 13 15 7 8 1021.9 1021.3 0.0
24/01:00am 13.6 12.0 10.2 80 1.8 SE 9 13 5 7 1022.0 1021.4 0.0
24/12:30am 13.4 11.4 10.0 80 1.8 SE 11 13 6 7 1022.2 1021.6 0.0
24/12:00am 13.4 10.5 9.8 79 1.9 SSE 15 17 8 9 1022.3 1021.7 0.0
 
Date/Time
EST
Temp
°C
App
Temp
°C
Dew
Point
°C
Rel
Hum
%
Delta-T
°C
Wind Press
QNH
hPa
Press
MSL
hPa
Rain since
9am
mm
Dir  Spd
km/h
Gust
km/h
Spd
kts
Gust
kts
23/11:30pm 13.5 10.3 9.9 79 1.9 SE 17 19 9 10 1022.4 1021.8 0.0
23/11:00pm 13.9 10.7 10.1 78 2.0 SE 17 19 9 10 1022.5 1021.9 0.0
23/10:30pm 12.6 10.0 9.4 81 1.6 SE 13 15 7 8 1022.7 1022.1 0.0
23/10:00pm 14.6 11.4 10.0 74 2.4 SE 17 17 9 9 1022.8 1022.2 0.0
23/09:30pm 15.8 13.0 9.9 68 3.1 SSE 15 17 8 9 1022.9 1022.3 0.0
23/09:00pm 16.2 13.3 9.8 66 3.4 SSE 15 19 8 10 1022.8 1022.2 0.0
23/08:30pm 16.7 13.6 10.3 66 3.4 SSE 17 17 9 9 1022.7 1022.1 0.0
23/08:00pm 16.0 12.8 10.1 68 3.1 SSE 17 19 9 10 1022.4 1021.8 0.0
23/07:30pm 15.8 13.8 10.1 69 3.0 SSE 11 11 6 6 1022.2 1021.6 0.0
23/07:00pm 15.5 15.2 10.1 70 2.9 SE 2 9 1 5 1021.9 1021.3 0.0
23/06:30pm 17.3 16.3 10.2 63 3.8 S 6 7 3 4 1021.5 1020.9 0.0
23/06:00pm 18.3 17.1 9.6 57 4.6 S 6 9 3 5 1021.3 1020.7 0.0
23/05:30pm 21.3 19.9 9.5 47 6.4 SSW 7 9 4 5 1021.1 1020.4 0.0
23/05:00pm 23.6 22.7 9.2 40 7.9 SSW 4 9 2 5 1020.9 1020.2 0.0
23/04:30pm 25.6 25.3 8.6 34 9.3 CALM 0 6 0 3 1020.8 1020.1 0.0
23/04:00pm 24.4 22.7 8.4 36 8.6 SSE 7 13 4 7 1020.7 1020.0 0.0
23/03:30pm 25.5 24.7 8.1 33 9.4 NE 2 7 1 4 1020.8 1020.1 0.0
23/03:00pm 25.4 24.8 8.8 35 9.1 WNW 2 11 1 6 1021.1 1020.4 0.0
23/02:30pm 24.7 22.8 7.4 33 9.2 E 7 11 4 6 1021.2 1020.5 0.0
23/02:00pm 25.1 23.3 8.1 34 9.2 NE 7 15 4 8 1021.4 1020.8 0.0
23/01:30pm 24.1 22.5 8.1 36 8.6 W 6 9 3 5 1021.8 1021.2 0.0
23/01:00pm 24.6 22.6 8.5 36 8.7 NNW 9 13 5 7 1022.0 1021.4 0.0
23/12:30pm 24.5 24.0 9.3 38 8.4 NNE 2 9 1 5 1022.5 1021.9 0.0
23/12:00pm 23.7 23.1 10.4 43 7.4 ENE 4 9 2 5 1023.0 1022.4 0.0
23/11:30am 23.5 23.3 11.9 48 6.6 ENE 4 9 2 5 1023.7 1023.0 0.0
23/11:00am 22.3 21.1 11.7 51 6.0 NE 9 13 5 7 1024.3 1023.6 0.0
23/10:30am 21.4 19.8 11.7 54 5.5 ENE 11 17 6 9 1024.5 1023.9 0.0
23/10:00am 19.7 18.8 13.6 68 3.5 ESE 11 15 6 8 1024.8 1024.2 0.0
23/09:30am 17.0 15.8 12.7 76 2.4 ESE 11 15 6 8 1025.0 1024.4 0.0
23/09:00am 16.3 15.0 13.6 84 1.5 SE 13 17 7 9 1024.9 1024.3 0.0
23/08:30am 14.2 13.1 12.1 87 1.2 SE 9 11 5 6 1025.0 1024.4 0.0
23/08:00am 12.9 10.1 11.5 91 0.7 SE 17 20 9 11 1024.8 1024.2 0.0
23/07:30am 12.3 9.0 11.0 92 0.7 SE 19 22 10 12 1024.5 1023.9 0.0
23/07:00am 11.4 10.3 10.8 96 0.3 SSE 7 13 4 7 1024.2 1023.5 0.0
23/06:30am 10.4 7.9 9.8 96 0.3 SE 13 15 7 8 1023.9 1023.2 0.0
23/06:00am 9.9 7.3 9.3 96 0.3 SE 13 13 7 7 1023.8 1023.1 0.0
23/05:30am 9.8 6.4 9.0 95 0.4 SE 17 20 9 11 1023.5 1022.8 0.0
23/05:00am 9.8 7.1 9.0 95 0.4 SSE 13 13 7 7 1023.4 1022.7 0.0
23/04:30am 9.8 7.5 8.9 94 0.4 SSE 11 13 6 7 1023.0 1022.4 0.0
23/04:00am 10.5 8.4 9.6 94 0.5 SSE 11 13 6 7 1023.0 1022.4 0.0
23/03:30am 11.0 8.6 10.1 94 0.5 SSE 13 17 7 9 1022.9 1022.3 0.0
23/03:00am 10.8 8.7 9.9 94 0.5 SSE 11 13 6 7 1022.8 1022.2 0.0
23/02:30am 10.8 8.4 10.2 96 0.3 SE 13 15 7 8 1022.9 1022.3 0.0
23/02:00am 10.1 8.8 9.3 95 0.4 SE 6 7 3 4 1023.1 1022.5 0.0
23/01:30am 9.2 7.0 7.8 91 0.7 E 9 13 5 7 1023.5 1022.8 0.0
23/01:00am 10.7 9.2 9.3 91 0.7 SE 7 11 4 6 1023.6 1022.9 0.0
23/12:30am 11.2 9.9 9.8 91 0.7 SE 7 11 4 6 1023.9 1023.2 0.0
23/12:00am 12.1 10.3 10.8 92 0.7 SSE 11 13 6 7 1024.2 1023.5 0.0
 
Date/Time
EST
Temp
°C
App
Temp
°C
Dew
Point
°C
Rel
Hum
%
Delta-T
°C
Wind Press
QNH
hPa
Press
MSL
hPa
Rain since
9am
mm
Dir  Spd
km/h
Gust
km/h
Spd
kts
Gust
kts
22/11:30pm 11.0 9.2 9.4 90 0.8 ESE 9 13 5 7 1024.2 1023.5 0.0
22/11:00pm 12.2 10.7 10.6 90 0.8 SSE 9 11 5 6 1024.3 1023.6 0.0
22/10:30pm 12.2 10.6 10.3 88 1.0 SE 9 9 5 5 1024.4 1023.8 0.0
22/10:00pm 13.3 13.6 10.8 85 1.3 CALM 0 0 0 0 1024.5 1023.9 0.0
22/09:30pm 13.0 13.1 10.2 83 1.5 CALM 0 0 0 0 1024.6 1024.0 0.0
22/09:00pm 14.6 13.8 11.2 80 1.8 NE 6 7 3 4 1024.6 1024.0 0.0
22/08:30pm 14.9 14.1 11.1 78 2.1 ENE 6 9 3 5 1024.4 1023.8 0.0
22/08:00pm 15.2 15.7 11.6 79 2.0 CALM 0 0 0 0 1024.2 1023.5 0.0
22/07:30pm 15.3 15.7 11.3 77 2.2 CALM 0 0 0 0 1024.0 1023.3 0.0
22/07:29pm 15.4 15.8 11.4 77 2.2 CALM 0 0 0 0 1024.0 1023.3 0.0
22/07:00pm 15.1 15.3 10.7 75 2.3 CALM 0 6 0 3 1023.7 1023.0 0.0
22/06:43pm 15.9 14.1 10.9 72 2.7 NNE 11 11 6 6 1023.6 1022.9 0.0

Other Formats:

Comma delimited format used in spreadsheet applications
http://www.bom.gov.au/fwo/IDN60801/IDN60801.95719.axf

JavaScript Object Notation format (JSON) in row-major order
http://www.bom.gov.au/fwo/IDN60801/IDN60801.95719.json